createdAt,value
2018-11-23T00:04:39.565Z,5.56
2018-11-23T00:09:43.985Z,5.56
2018-11-23T00:14:48.807Z,5.60
2018-11-23T00:19:53.260Z,5.58
2018-11-23T00:24:57.174Z,5.60
2018-11-23T00:30:01.859Z,5.62
2018-11-23T00:35:08.330Z,5.71
2018-11-23T00:40:14.576Z,5.77
2018-11-23T00:45:18.709Z,5.67
2018-11-23T00:50:23.639Z,5.71
2018-11-23T00:55:28.101Z,5.72
2018-11-23T01:00:33.023Z,5.69
2018-11-23T01:05:36.894Z,5.62
2018-11-23T01:10:40.761Z,5.62
2018-11-23T01:15:44.817Z,5.66
2018-11-23T01:20:48.622Z,5.68
2018-11-23T01:25:52.631Z,5.70
2018-11-23T01:30:56.553Z,5.68
2018-11-23T01:36:00.634Z,5.59
2018-11-23T01:41:05.350Z,5.59
2018-11-23T01:46:09.295Z,5.62
2018-11-23T01:51:13.189Z,5.61
2018-11-23T01:56:18.189Z,5.65
2018-11-23T02:01:22.150Z,5.67
2018-11-23T02:06:26.116Z,5.68
2018-11-23T02:11:29.941Z,5.65
2018-11-23T02:16:33.823Z,5.73
2018-11-23T02:21:37.908Z,5.72
2018-11-23T02:26:42.127Z,5.69
2018-11-23T02:31:46.072Z,5.78
2018-11-23T02:36:50.057Z,5.74
2018-11-23T02:41:54.982Z,5.76
2018-11-23T02:46:58.919Z,5.74
2018-11-23T02:52:02.900Z,5.78
2018-11-23T02:57:12.212Z,5.73
2018-11-23T03:02:16.587Z,5.73
2018-11-23T03:07:20.701Z,5.76
2018-11-23T03:12:25.048Z,5.76
2018-11-23T03:17:29.082Z,5.68
2018-11-23T03:22:33.704Z,5.73
2018-11-23T03:27:37.824Z,5.65
2018-11-23T03:32:41.920Z,5.71
2018-11-23T03:37:46.084Z,5.70
2018-11-23T03:42:50.086Z,5.73
2018-11-23T03:47:53.984Z,5.70
2018-11-23T03:52:59.190Z,5.75
2018-11-23T03:58:03.161Z,5.76
2018-11-23T04:03:07.032Z,5.72
2018-11-23T04:08:11.161Z,5.72
2018-11-23T04:13:16.092Z,5.72
2018-11-23T04:18:20.163Z,5.74
2018-11-23T04:23:24.226Z,5.78
2018-11-23T04:28:28.178Z,5.77
2018-11-23T04:33:32.202Z,5.83
2018-11-23T04:38:36.375Z,5.84
2018-11-23T04:43:40.866Z,5.86
2018-11-23T04:48:50.259Z,5.79
2018-11-23T04:54:06.331Z,5.82
2018-11-23T04:59:10.463Z,5.77
2018-11-23T05:04:14.481Z,5.86
2018-11-23T05:09:18.415Z,5.87
2018-11-23T05:14:22.547Z,5.85
2018-11-23T05:19:27.018Z,5.84
2018-11-23T05:24:31.180Z,5.92
2018-11-23T05:29:35.402Z,5.96
2018-11-23T05:34:40.804Z,5.95
2018-11-23T05:39:46.063Z,5.98
2018-11-23T05:44:50.142Z,5.94
2018-11-23T05:49:53.999Z,5.97
2018-11-23T05:54:58.056Z,5.89
2018-11-23T06:00:02.748Z,5.86
2018-11-23T06:05:07.032Z,5.90
2018-11-23T06:10:13.952Z,5.86
2018-11-23T06:15:19.895Z,5.88
2018-11-23T06:20:25.281Z,5.81
2018-11-23T06:25:43.356Z,5.82
2018-11-23T06:30:48.255Z,5.84
2018-11-23T06:35:52.393Z,5.91
2018-11-23T06:40:57.191Z,5.88
2018-11-23T06:46:02.179Z,5.88
2018-11-23T06:51:06.577Z,5.94
2018-11-23T06:56:10.920Z,5.93
2018-11-23T07:01:14.974Z,5.88
2018-11-23T07:06:19.865Z,5.99
2018-11-23T07:11:25.398Z,5.97
2018-11-23T07:16:29.839Z,5.98
2018-11-23T07:21:34.014Z,5.98
2018-11-23T07:26:39.511Z,6.07
2018-11-23T07:31:44.488Z,6.10
2018-11-23T07:36:48.407Z,6.12
2018-11-23T07:42:03.262Z,6.12
2018-11-23T07:47:06.874Z,6.03
2018-11-23T07:52:10.530Z,6.12
2018-11-23T07:57:14.067Z,6.17
2018-11-23T08:02:17.516Z,6.23
2018-11-23T08:07:21.193Z,6.31
2018-11-23T08:12:25.569Z,6.36
2018-11-23T08:17:28.968Z,6.49
2018-11-23T08:22:33.337Z,6.60
2018-11-23T08:27:36.893Z,6.69
2018-11-23T08:32:40.973Z,6.75
2018-11-23T08:37:45.026Z,6.82
2018-11-23T08:42:49.616Z,6.91
2018-11-23T08:47:54.583Z,7.02
2018-11-23T08:52:58.828Z,7.11
2018-11-23T08:58:03.468Z,7.04
2018-11-23T09:03:07.427Z,7.02
2018-11-23T09:08:11.168Z,7.19
2018-11-23T09:13:15.165Z,7.30
2018-11-23T09:18:19.100Z,7.31
2018-11-23T09:23:22.717Z,7.29
2018-11-23T09:28:26.344Z,7.21
2018-11-23T09:33:29.691Z,7.30
2018-11-23T09:38:32.999Z,7.34
2018-11-23T09:43:36.293Z,7.32
2018-11-23T09:48:39.633Z,7.44
2018-11-23T09:53:42.939Z,7.49
2018-11-23T09:58:46.262Z,7.53
2018-11-23T10:03:50.172Z,7.62
2018-11-23T10:08:54.159Z,7.57
2018-11-23T10:13:57.465Z,7.70
2018-11-23T10:19:00.820Z,7.82
2018-11-23T10:24:04.628Z,7.93
2018-11-23T10:29:08.394Z,8.02
2018-11-23T10:34:11.757Z,8.11
2018-11-23T10:39:15.634Z,8.26
2018-11-23T10:44:19.025Z,8.44
2018-11-23T10:49:22.365Z,8.66
2018-11-23T10:54:25.773Z,8.74
2018-11-23T10:59:39.875Z,8.79
2018-11-23T11:04:48.161Z,9.01
2018-11-23T11:09:51.661Z,9.23
2018-11-23T11:14:55.079Z,9.80
2018-11-23T11:19:59.337Z,12.69
2018-11-23T11:25:04.396Z,14.44
2018-11-23T11:30:11.540Z,14.75
2018-11-23T11:35:15.139Z,14.90
2018-11-23T11:40:19.591Z,14.24
2018-11-23T11:45:23.297Z,13.33
2018-11-23T11:50:26.635Z,12.86
2018-11-23T11:55:30.014Z,12.35
2018-11-23T12:00:33.371Z,12.70
2018-11-23T12:05:36.737Z,12.96
2018-11-23T12:12:23.261Z,13.09
2018-11-23T12:17:26.618Z,11.66
2018-11-23T12:22:29.939Z,11.40
2018-11-23T12:27:33.432Z,11.27
2018-11-23T12:32:37.089Z,10.93
2018-11-23T12:37:40.849Z,11.37
2018-11-23T12:42:44.694Z,10.91
2018-11-23T12:47:48.067Z,10.42
2018-11-23T12:52:51.470Z,10.43
2018-11-23T12:57:54.811Z,10.62
2018-11-23T13:03:00.496Z,11.06
2018-11-23T13:08:05.584Z,11.48
2018-11-23T13:13:09.008Z,11.76
2018-11-23T13:18:12.514Z,11.66
2018-11-23T13:23:16.052Z,10.89
2018-11-23T13:28:19.586Z,10.35
2018-11-23T13:33:23.196Z,9.94
2018-11-23T13:38:26.854Z,9.70
2018-11-23T13:43:30.236Z,9.53
2018-11-23T13:48:33.697Z,9.41
2018-11-23T13:53:37.148Z,9.27
2018-11-23T13:58:40.482Z,9.22
2018-11-23T14:03:43.935Z,9.24
2018-11-23T14:08:47.386Z,9.24
2018-11-23T14:13:50.804Z,9.18
2018-11-23T14:18:54.167Z,9.22
2018-11-23T14:23:57.503Z,9.28
2018-11-23T14:29:00.820Z,9.18
2018-11-23T14:34:04.301Z,9.02
2018-11-23T14:39:09.177Z,8.90
2018-11-23T14:44:12.617Z,8.83
2018-11-23T14:49:16.119Z,8.73
2018-11-23T14:54:19.648Z,8.60
2018-11-23T14:59:23.054Z,8.41
2018-11-23T15:04:26.902Z,8.43
2018-11-23T15:09:30.296Z,8.43
2018-11-23T15:14:33.911Z,8.37
2018-11-23T15:19:37.554Z,8.29
2018-11-23T15:24:40.917Z,8.29
2018-11-23T15:29:44.230Z,8.18
2018-11-23T15:34:47.894Z,8.13
2018-11-23T15:39:51.434Z,8.13
2018-11-23T15:44:54.816Z,7.99
2018-11-23T15:49:58.128Z,7.91
2018-11-23T15:55:01.669Z,7.84
2018-11-23T16:00:09.434Z,7.80
2018-11-23T16:05:13.302Z,7.73
2018-11-23T16:10:20.049Z,7.68
2018-11-23T16:15:23.943Z,7.64
2018-11-23T16:20:29.832Z,7.56
2018-11-23T16:25:33.324Z,7.49
2018-11-23T16:30:39.327Z,7.45
2018-11-23T16:35:43.380Z,7.38
2018-11-23T16:40:48.637Z,7.36
2018-11-23T16:45:52.018Z,7.34
2018-11-23T16:50:55.395Z,7.30
2018-11-23T16:55:58.858Z,7.23
2018-11-23T17:01:02.387Z,7.17
2018-11-23T17:06:05.949Z,7.14
2018-11-23T17:11:09.304Z,7.05
2018-11-23T17:16:12.617Z,7.02
2018-11-23T17:21:16.048Z,6.94
2018-11-23T17:26:19.656Z,6.80
2018-11-23T17:31:23.062Z,6.77
2018-11-23T17:36:26.518Z,6.72
2018-11-23T17:41:29.873Z,6.63
2018-11-23T17:46:33.340Z,6.57
2018-11-23T17:51:36.815Z,6.51
2018-11-23T17:56:40.363Z,6.43
2018-11-23T18:01:43.856Z,6.40
2018-11-23T18:06:47.275Z,6.29
2018-11-23T18:11:50.656Z,6.08
2018-11-23T18:16:54.375Z,6.05
2018-11-23T18:21:57.861Z,6.13
2018-11-23T18:27:01.331Z,6.11
2018-11-23T18:32:04.719Z,6.07
2018-11-23T18:37:08.131Z,6.06
2018-11-23T18:42:11.693Z,6.05
2018-11-23T18:47:15.472Z,5.84
2018-11-23T18:52:20.672Z,5.92
2018-11-23T18:57:24.343Z,5.81
2018-11-23T19:02:27.840Z,5.86
2018-11-23T19:07:31.544Z,5.98
2018-11-23T19:12:34.867Z,5.99
2018-11-23T19:17:38.172Z,5.93
2018-11-23T19:22:42.477Z,5.77
2018-11-23T19:27:46.063Z,5.67
2018-11-23T19:32:49.600Z,5.72
2018-11-23T19:37:53.212Z,5.84
2018-11-23T19:42:56.670Z,6.00
2018-11-23T19:48:00.136Z,6.04
2018-11-23T19:53:03.644Z,6.03
2018-11-23T19:58:08.096Z,5.98
2018-11-23T20:03:11.807Z,5.76
2018-11-23T20:08:15.140Z,5.76
2018-11-23T20:13:18.518Z,5.76
2018-11-23T20:18:21.934Z,5.76
2018-11-23T20:23:25.248Z,5.80
2018-11-23T20:28:28.588Z,5.76
2018-11-23T20:33:32.065Z,5.61
2018-11-23T20:38:35.384Z,5.70
2018-11-23T20:43:39.660Z,5.67
2018-11-23T20:48:43.075Z,5.75
2018-11-23T20:53:46.390Z,5.71
2018-11-23T20:58:49.895Z,5.61
2018-11-23T21:03:53.372Z,5.52
2018-11-23T21:08:56.691Z,5.48
2018-11-23T21:14:00.208Z,5.42
2018-11-23T21:19:03.799Z,5.41
2018-11-23T21:24:15.505Z,5.48
2018-11-23T21:29:19.219Z,5.46
2018-11-23T21:34:22.879Z,5.39
2018-11-23T21:39:27.461Z,5.42
2018-11-23T21:44:31.195Z,5.45
2018-11-23T21:49:34.647Z,5.28
2018-11-23T21:54:38.301Z,5.33
2018-11-23T21:59:43.088Z,5.32
2018-11-23T22:04:46.747Z,5.27
2018-11-23T22:09:50.208Z,5.22
2018-11-23T22:14:53.966Z,5.06
2018-11-23T22:19:57.623Z,5.17
2018-11-23T22:25:01.385Z,5.09
2018-11-23T22:30:10.625Z,5.13
2018-11-23T22:35:14.412Z,4.98
2018-11-23T22:40:19.091Z,5.06
2018-11-23T22:45:23.236Z,4.99
2018-11-23T22:50:27.081Z,5.02
2018-11-23T22:55:30.741Z,4.96
2018-11-23T23:00:41.377Z,4.94
2018-11-23T23:05:45.100Z,4.97
2018-11-23T23:10:48.488Z,5.01
2018-11-23T23:15:52.021Z,5.00
2018-11-23T23:20:55.649Z,4.96
2018-11-23T23:26:00.119Z,4.89
2018-11-23T23:31:05.501Z,4.87
2018-11-23T23:36:11.444Z,4.76
2018-11-23T23:41:15.044Z,4.68
2018-11-23T23:46:18.599Z,4.46
2018-11-23T23:51:22.088Z,4.55
2018-11-23T23:56:25.459Z,4.48
